Time;durP1;ratioP1;P1;durP2;ratioP2;P2;SDS_P1;SDS_P2;PMS_P1;PMS_P2;Temp;Humidity;BMP_temperature;BMP_pressure;BME280_temperature;BME280_humidity;BME280_pressure;Samples;Min_cycle;Max_cycle;Signal;HPM_P1;HPM_P2
2022/01/04 00:00:23;;;;;;;2.67;2.47;;;9.50;99.90;;;;;;4954691;29;20404;-73
2022/01/04 00:02:49;;;;;;;3.40;2.72;;;9.50;99.90;;;;;;4955177;29;20043;-73
2022/01/04 00:05:16;;;;;;;4.50;2.60;;;9.50;99.90;;;;;;4954815;29;20036;-73
2022/01/04 00:07:42;;;;;;;2.38;1.92;;;9.60;99.90;;;;;;4954653;29;20023;-72
2022/01/04 00:10:08;;;;;;;3.00;2.70;;;9.60;99.90;;;;;;4955026;29;20031;-72
2022/01/04 00:15:21;;;;;;;4.95;2.25;;;9.60;99.90;;;;;;4954115;29;20034;-73
2022/01/04 00:17:48;;;;;;;3.72;2.47;;;9.60;99.90;;;;;;4954899;29;20035;-72
2022/01/04 00:20:14;;;;;;;3.17;2.17;;;9.60;99.90;;;;;;4937022;29;20043;-72
2022/01/04 00:22:40;;;;;;;3.63;2.25;;;9.60;99.90;;;;;;4953820;29;20042;-73
2022/01/04 00:25:07;;;;;;;7.07;2.35;;;9.60;99.90;;;;;;4954583;29;20031;-72
2022/01/04 00:27:33;;;;;;;5.43;2.63;;;9.60;99.90;;;;;;4953728;29;20031;-72
2022/01/04 00:30:00;;;;;;;4.53;2.45;;;9.60;99.90;;;;;;4936995;29;20047;-72
2022/01/04 00:32:26;;;;;;;4.05;3.00;;;9.60;99.90;;;;;;4953438;29;20042;-73
2022/01/04 00:34:53;;;;;;;2.60;1.90;;;9.70;99.90;;;;;;4953780;29;20047;-73
2022/01/04 00:37:19;;;;;;;7.45;2.10;;;9.60;99.90;;;;;;4936652;29;20488;-72
2022/01/04 00:39:45;;;;;;;3.20;2.42;;;9.60;99.90;;;;;;4954278;29;20043;-73
2022/01/04 00:42:11;;;;;;;5.32;4.05;;;9.60;99.90;;;;;;4954003;28;20047;-73
2022/01/04 00:44:37;;;;;;;5.35;4.53;;;9.70;99.90;;;;;;4953716;29;20035;-73
2022/01/04 00:47:04;;;;;;;5.10;4.60;;;9.70;99.90;;;;;;4954428;29;20050;-72
2022/01/04 00:49:30;;;;;;;5.85;3.03;;;9.70;99.90;;;;;;4953734;29;20031;-72
2022/01/04 00:52:00;;;;;;;14.80;12.38;;;9.70;99.90;;;;;;4954061;29;20051;-71
2022/01/04 00:54:27;;;;;;;5.68;3.58;;;9.70;99.90;;;;;;4936809;29;20043;-73
2022/01/04 00:56:53;;;;;;;4.43;2.58;;;9.70;99.90;;;;;;4954531;29;20054;-72
2022/01/04 00:59:20;;;;;;;5.43;3.03;;;9.70;99.90;;;;;;4953983;29;20042;-72
2022/01/04 01:01:46;;;;;;;7.43;5.60;;;9.70;99.90;;;;;;4953445;29;20047;-72
2022/01/04 01:04:13;;;;;;;4.70;3.53;;;9.70;99.90;;;;;;4953989;29;20385;-72
2022/01/04 01:06:40;;;;;;;2.88;2.53;;;9.70;99.90;;;;;;4953285;29;20038;-73
2022/01/04 01:09:06;;;;;;;2.92;2.35;;;9.70;99.90;;;;;;4936094;29;20043;-73
2022/01/04 01:11:32;;;;;;;1.98;1.77;;;9.70;99.90;;;;;;4953444;29;20047;-73
2022/01/04 01:13:59;;;;;;;2.97;1.73;;;9.70;99.90;;;;;;4953882;29;20042;-73
2022/01/04 01:16:25;;;;;;;2.30;1.80;;;9.70;99.90;;;;;;4953036;29;20035;-73
2022/01/04 01:18:51;;;;;;;5.38;2.50;;;9.80;99.90;;;;;;4953611;29;20465;-73
2022/01/04 01:21:17;;;;;;;7.18;2.55;;;9.80;99.90;;;;;;4953717;29;20054;-72
2022/01/04 01:23:44;;;;;;;2.95;2.03;;;9.80;99.90;;;;;;4953228;29;20039;-73
2022/01/04 01:26:10;;;;;;;3.67;3.25;;;9.80;99.90;;;;;;4953570;29;20035;-73
2022/01/04 01:28:37;;;;;;;2.47;2.00;;;9.80;99.90;;;;;;4953062;29;20038;-73
2022/01/04 01:31:03;;;;;;;14.13;11.93;;;9.80;99.90;;;;;;4953635;29;20031;-73
2022/01/04 01:33:29;;;;;;;10.18;3.42;;;9.80;99.90;;;;;;4952781;29;20035;-73
2022/01/04 01:35:57;;;;;;;5.85;3.85;;;9.80;99.90;;;;;;4953804;29;20034;-73
2022/01/04 01:38:23;;;;;;;6.90;4.75;;;9.80;99.90;;;;;;4953509;29;20450;-73
2022/01/04 01:40:51;;;;;;;4.05;2.50;;;9.80;99.90;;;;;;4953357;29;20035;-73
2022/01/04 01:43:18;;;;;;;7.15;4.43;;;9.80;99.90;;;;;;4953512;29;20042;-73
2022/01/04 01:45:45;;;;;;;6.07;4.07;;;9.80;99.90;;;;;;4952627;29;20030;-73
2022/01/04 01:48:12;;;;;;;3.72;2.83;;;9.80;99.90;;;;;;4953902;29;20032;-73
2022/01/04 01:50:39;;;;;;;4.00;2.60;;;9.80;99.90;;;;;;4952727;29;20047;-72
2022/01/04 01:53:05;;;;;;;4.55;3.78;;;9.80;99.90;;;;;;4953249;28;20461;-73
2022/01/04 01:55:31;;;;;;;6.60;5.22;;;9.80;99.90;;;;;;4955341;29;20075;-72
2022/01/04 01:57:59;;;;;;;5.70;3.25;;;9.80;99.90;;;;;;4957443;29;20039;-72
2022/01/04 02:00:27;;;;;;;5.70;2.85;;;9.80;99.90;;;;;;4956510;29;20112;-72
2022/01/04 02:02:54;;;;;;;4.40;2.30;;;9.80;99.90;;;;;;4957368;29;20050;-72
2022/01/04 02:05:21;;;;;;;4.13;2.92;;;9.80;99.90;;;;;;4957128;29;20035;-72
2022/01/04 02:07:48;;;;;;;4.40;3.70;;;9.80;99.90;;;;;;4939154;29;20036;-72
2022/01/04 02:10:14;;;;;;;3.40;2.10;;;9.80;99.90;;;;;;4957002;29;20035;-72
2022/01/04 02:12:49;;;;;;;4.85;3.03;;;9.80;99.90;;;;;;4956339;29;20046;-72
2022/01/04 02:15:18;;;;;;;4.07;3.08;;;9.80;99.90;;;;;;4957278;29;20487;-71
2022/01/04 02:17:45;;;;;;;2.83;2.22;;;9.80;99.90;;;;;;4956062;29;20241;-71
2022/01/04 02:20:12;;;;;;;4.75;2.90;;;9.80;99.90;;;;;;4956746;29;20042;-72
2022/01/04 02:22:39;;;;;;;2.88;2.47;;;9.80;99.90;;;;;;4955683;29;20062;-72
2022/01/04 02:25:06;;;;;;;3.72;2.42;;;9.80;99.90;;;;;;4956391;29;20035;-71
2022/01/04 02:27:34;;;;;;;2.80;2.10;;;9.90;99.90;;;;;;4956146;29;20031;-72
2022/01/04 02:30:01;;;;;;;4.47;2.70;;;9.90;99.90;;;;;;4956732;29;20042;-72
2022/01/04 02:32:27;;;;;;;3.03;2.60;;;9.90;99.90;;;;;;4956025;29;20027;-73
2022/01/04 02:34:53;;;;;;;1.50;1.38;;;9.90;99.90;;;;;;4956551;29;20035;-72
2022/01/04 02:37:21;;;;;;;3.35;2.30;;;9.90;99.90;;;;;;4956863;29;20031;-72
2022/01/04 02:39:48;;;;;;;3.20;2.33;;;9.90;99.90;;;;;;4922679;29;20035;-72
2022/01/04 02:42:15;;;;;;;2.33;1.95;;;9.90;99.90;;;;;;4956679;29;20039;-72
2022/01/04 02:44:41;;;;;;;2.15;1.77;;;9.90;99.90;;;;;;4955422;29;20062;-72
2022/01/04 02:47:07;;;;;;;4.05;2.17;;;9.90;99.90;;;;;;4956630;29;20046;-72
2022/01/04 02:49:34;;;;;;;5.03;2.33;;;10.00;99.90;;;;;;4955573;29;20102;-72
2022/01/04 02:52:00;;;;;;;4.05;2.53;;;9.90;99.90;;;;;;4956016;29;20043;-72
2022/01/04 02:54:26;;;;;;;3.08;2.38;;;10.00;99.90;;;;;;4955114;29;20047;-72
2022/01/04 02:56:52;;;;;;;2.97;2.03;;;10.00;99.90;;;;;;4955716;29;20054;-71
2022/01/04 02:59:19;;;;;;;2.70;1.95;;;9.90;99.90;;;;;;4956149;29;20038;-72
2022/01/04 03:01:45;;;;;;;2.92;2.40;;;9.90;99.90;;;;;;4938315;29;20047;-72
2022/01/04 03:04:11;;;;;;;2.30;2.10;;;9.90;99.90;;;;;;4939046;29;20047;-72
2022/01/04 03:06:38;;;;;;;178.45;159.82;;;9.90;99.90;;;;;;4954688;28;20031;-72
2022/01/04 03:09:05;;;;;;;31.95;17.17;;;9.90;99.90;;;;;;4955953;29;20027;-72
2022/01/04 03:11:33;;;;;;;8.20;4.68;;;9.90;99.90;;;;;;4955186;29;20046;-72
2022/01/04 03:14:00;;;;;;;18.25;16.00;;;9.90;99.90;;;;;;4956134;29;20031;-71
2022/01/04 03:16:27;;;;;;;17.40;15.68;;;9.90;99.90;;;;;;4955876;29;20031;-71
2022/01/04 03:19:06;;;;;;;38.55;34.85;;;9.90;99.90;;;;;;4955410;29;20042;-71
2022/01/04 03:21:34;;;;;;;13.43;11.85;;;9.90;99.90;;;;;;4955196;29;20035;-71
2022/01/04 03:24:01;;;;;;;47.08;40.05;;;10.00;99.90;;;;;;4956017;29;20390;-71
2022/01/04 03:26:27;;;;;;;25.33;21.65;;;10.00;99.90;;;;;;4955575;29;20027;-71
2022/01/04 03:28:53;;;;;;;54.67;47.97;;;10.00;99.90;;;;;;4955175;29;20032;-71
2022/01/04 03:31:20;;;;;;;60.88;51.90;;;9.90;99.90;;;;;;4956059;29;20393;-71
2022/01/04 03:33:46;;;;;;;26.70;20.60;;;9.90;99.90;;;;;;4937533;29;20050;-71
2022/01/04 03:36:14;;;;;;;15.32;13.77;;;9.90;99.90;;;;;;4955517;29;20381;-71
2022/01/04 03:38:41;;;;;;;53.60;45.13;;;9.90;99.90;;;;;;4937473;29;20050;-72
2022/01/04 03:41:08;;;;;;;54.33;48.33;;;9.90;99.90;;;;;;4955673;29;20042;-72
2022/01/04 03:43:37;;;;;;;25.73;18.58;;;9.90;99.90;;;;;;4954841;29;20047;-72
2022/01/04 03:46:05;;;;;;;17.15;15.38;;;9.90;99.90;;;;;;4955262;29;20035;-71
2022/01/04 03:48:32;;;;;;;69.75;62.40;;;9.90;99.90;;;;;;4954748;29;20047;-72
2022/01/04 03:50:58;;;;;;;25.77;13.52;;;9.90;99.90;;;;;;4937863;29;20062;-71
2022/01/04 03:53:24;;;;;;;7.93;5.97;;;9.90;99.90;;;;;;4938314;29;20039;-71
2022/01/04 03:55:50;;;;;;;22.00;19.80;;;9.90;99.90;;;;;;4954393;29;20027;-72
2022/01/04 03:58:17;;;;;;;71.72;63.90;;;9.90;99.90;;;;;;4955462;29;20039;-71
2022/01/04 04:00:43;;;;;;;95.10;83.05;;;9.90;99.90;;;;;;4953910;29;20051;-72
2022/01/04 04:03:09;;;;;;;97.55;87.55;;;9.80;99.90;;;;;;4954797;29;20404;-72
2022/01/04 04:05:35;;;;;;;24.42;20.85;;;9.90;99.90;;;;;;4954395;29;20042;-72
2022/01/04 04:08:01;;;;;;;35.92;28.25;;;9.80;99.90;;;;;;4955365;29;20035;-72
2022/01/04 04:10:28;;;;;;;38.60;32.95;;;9.80;99.90;;;;;;4955148;29;20039;-72
2022/01/04 04:12:54;;;;;;;26.80;24.27;;;9.90;99.90;;;;;;4954175;29;20043;-72
2022/01/04 04:15:20;;;;;;;24.35;20.63;;;9.90;99.90;;;;;;4953868;29;20050;-72
2022/01/04 04:17:47;;;;;;;17.70;15.30;;;9.90;99.90;;;;;;4953486;28;20038;-72
2022/01/04 04:20:13;;;;;;;16.95;12.57;;;9.80;99.90;;;;;;4954994;29;20389;-72
2022/01/04 04:22:40;;;;;;;21.52;17.83;;;9.90;99.90;;;;;;4953804;29;20499;-72
2022/01/04 04:25:07;;;;;;;10.63;9.48;;;9.80;99.90;;;;;;4954593;29;20046;-72
2022/01/04 04:27:33;;;;;;;12.50;9.07;;;9.80;99.90;;;;;;4953607;29;20058;-72
2022/01/04 04:29:59;;;;;;;16.23;14.07;;;9.80;99.90;;;;;;4954687;29;20042;-72
2022/01/04 04:32:26;;;;;;;24.58;21.85;;;9.80;99.90;;;;;;4954487;29;20039;-73
2022/01/04 04:34:52;;;;;;;9.20;8.27;;;9.80;99.90;;;;;;4953755;29;20633;-72
2022/01/04 04:37:18;;;;;;;25.05;21.95;;;9.80;99.90;;;;;;4954341;29;20062;-72
2022/01/04 04:39:44;;;;;;;12.10;8.88;;;9.70;99.90;;;;;;4953631;29;20027;-73
2022/01/04 04:42:10;;;;;;;4.18;3.33;;;9.70;99.90;;;;;;4954681;29;20039;-72
2022/01/04 04:44:37;;;;;;;8.80;7.53;;;9.80;99.90;;;;;;4953677;29;20046;-72
2022/01/04 04:47:04;;;;;;;25.67;19.33;;;9.70;99.90;;;;;;4954626;29;20048;-72
2022/01/04 04:49:30;;;;;;;13.60;12.02;;;9.70;99.90;;;;;;4954772;29;20366;-72
2022/01/04 04:51:59;;;;;;;40.03;30.80;;;9.70;99.90;;;;;;4953788;29;20543;-72
2022/01/04 04:54:28;;;;;;;16.50;12.75;;;9.70;99.90;;;;;;4937300;29;20469;-72
2022/01/04 04:56:55;;;;;;;15.77;12.63;;;9.80;99.90;;;;;;4937220;29;20030;-72
2022/01/04 04:59:21;;;;;;;11.00;9.60;;;9.70;99.90;;;;;;4954579;29;20031;-72
2022/01/04 05:01:47;;;;;;;9.45;5.57;;;9.70;99.90;;;;;;4935752;29;20047;-72
2022/01/04 05:04:13;;;;;;;8.52;7.47;;;9.70;99.90;;;;;;4953956;29;20031;-72
2022/01/04 05:06:39;;;;;;;9.18;7.13;;;9.70;99.90;;;;;;4936063;29;20036;-72
2022/01/04 05:09:06;;;;;;;4.20;3.80;;;9.70;99.90;;;;;;4954005;29;20487;-72
2022/01/04 05:11:32;;;;;;;8.27;6.45;;;9.70;99.90;;;;;;4936581;29;20054;-72
2022/01/04 05:13:58;;;;;;;9.35;8.20;;;9.70;99.90;;;;;;4952954;29;20031;-72
2022/01/04 05:16:24;;;;;;;12.80;11.80;;;9.70;99.90;;;;;;4953679;29;20042;-72
2022/01/04 05:18:51;;;;;;;9.27;6.75;;;9.70;99.90;;;;;;4953019;29;20027;-72
2022/01/04 05:21:17;;;;;;;8.90;7.15;;;9.70;99.90;;;;;;4953585;29;20051;-72
2022/01/04 05:23:43;;;;;;;12.13;11.02;;;9.70;99.90;;;;;;4953003;29;20042;-73
2022/01/04 05:26:09;;;;;;;16.33;14.63;;;9.70;99.90;;;;;;4953407;29;20389;-73
2022/01/04 05:28:35;;;;;;;7.90;5.07;;;9.70;99.90;;;;;;4953087;29;20031;-72
2022/01/04 05:31:02;;;;;;;5.00;3.40;;;9.70;99.90;;;;;;4935957;29;20481;-72
2022/01/04 05:33:28;;;;;;;6.57;4.68;;;9.60;99.90;;;;;;4953584;29;20035;-72
2022/01/04 05:35:54;;;;;;;6.05;5.45;;;9.70;99.90;;;;;;4952853;29;20042;-71
2022/01/04 05:38:21;;;;;;;6.85;6.35;;;9.70;99.90;;;;;;4954085;29;20039;-73
2022/01/04 05:40:47;;;;;;;8.75;6.65;;;9.70;99.90;;;;;;4952582;29;20384;-72
2022/01/04 05:43:16;;;;;;;4.15;3.75;;;9.70;99.90;;;;;;4953625;29;20050;-72
2022/01/04 05:45:42;;;;;;;4.38;4.00;;;9.70;99.90;;;;;;4952778;29;20038;-73
2022/01/04 05:48:08;;;;;;;6.20;5.28;;;9.70;99.90;;;;;;4954062;29;20032;-73
2022/01/04 05:50:35;;;;;;;7.18;3.10;;;9.70;99.90;;;;;;4953420;29;20042;-73
2022/01/04 05:53:01;;;;;;;6.10;4.38;;;9.60;99.90;;;;;;4952831;29;20500;-72
2022/01/04 05:55:27;;;;;;;7.75;4.63;;;9.70;99.90;;;;;;4936914;29;20027;-72
2022/01/04 05:57:53;;;;;;;5.30;4.18;;;9.60;99.90;;;;;;4952866;29;20035;-73
2022/01/04 06:00:19;;;;;;;6.97;5.03;;;9.60;99.90;;;;;;4953263;29;20035;-72
2022/01/04 06:02:45;;;;;;;6.45;5.03;;;9.70;99.90;;;;;;4952550;29;20039;-73
2022/01/04 06:05:12;;;;;;;6.10;5.55;;;9.70;99.90;;;;;;4952860;29;20058;-73
2022/01/04 06:07:38;;;;;;;4.50;4.10;;;9.60;99.90;;;;;;4952994;29;20035;-73
2022/01/04 06:10:07;;;;;;;3.97;3.67;;;9.70;99.90;;;;;;4952939;29;20038;-73
2022/01/04 06:15:09;;;;;;;4.25;3.90;;;9.70;99.90;;;;;;4953042;29;20047;-72
2022/01/04 06:17:49;;;;;;;6.45;5.38;;;9.70;99.90;;;;;;4953810;29;20031;-72
2022/01/04 06:20:18;;;;;;;3.55;2.55;;;9.70;99.90;;;;;;4953807;29;20046;-72
2022/01/04 06:22:44;;;;;;;3.00;2.70;;;9.70;99.90;;;;;;4952398;29;20472;-72
2022/01/04 06:25:13;;;;;;;4.15;3.78;;;9.80;99.90;;;;;;4953466;29;20054;-72
2022/01/04 06:27:44;;;;;;;2.58;2.38;;;9.70;99.90;;;;;;4952672;29;20048;-73
2022/01/04 06:30:14;;;;;;;3.25;2.95;;;9.80;99.90;;;;;;4953131;29;20042;-73
2022/01/04 06:32:42;;;;;;;2.55;2.28;;;9.70;99.90;;;;;;4952682;29;20507;-73
2022/01/04 06:35:09;;;;;;;3.15;2.85;;;9.80;99.90;;;;;;4953569;29;20527;-73
2022/01/04 06:37:35;;;;;;;4.55;3.22;;;9.80;99.90;;;;;;4953239;29;20042;-73
2022/01/04 06:40:03;;;;;;;4.53;3.20;;;9.80;99.90;;;;;;4952933;28;20096;-73
2022/01/04 06:42:29;;;;;;;4.80;4.30;;;9.80;99.90;;;;;;4956737;29;20043;-73
2022/01/04 06:44:55;;;;;;;17.65;12.40;;;9.80;99.90;;;;;;4955489;29;20035;-73
2022/01/04 06:47:21;;;;;;;7.15;6.47;;;9.80;99.90;;;;;;4938992;29;20043;-73
2022/01/04 06:49:47;;;;;;;7.32;6.65;;;9.80;99.90;;;;;;4955582;29;20035;-73
2022/01/04 06:52:14;;;;;;;9.07;5.22;;;9.80;99.90;;;;;;4956583;29;20066;-73
2022/01/04 06:54:40;;;;;;;9.65;8.70;;;9.80;99.90;;;;;;4956047;29;20385;-73
2022/01/04 06:57:06;;;;;;;11.00;8.38;;;9.90;99.90;;;;;;4955847;29;20027;-72
2022/01/04 06:59:32;;;;;;;5.32;4.82;;;9.90;99.90;;;;;;4956137;29;20040;-72
2022/01/04 07:02:00;;;;;;;6.55;3.92;;;9.90;99.90;;;;;;4955451;29;20050;-73
2022/01/04 07:04:27;;;;;;;13.82;12.10;;;9.90;99.90;;;;;;4956051;29;20401;-73
2022/01/04 07:06:53;;;;;;;5.80;5.20;;;9.90;99.90;;;;;;4955222;29;20042;-73
2022/01/04 07:09:19;;;;;;;5.93;3.60;;;9.90;99.90;;;;;;4938767;29;20051;-73
2022/01/04 07:11:45;;;;;;;8.32;7.00;;;9.90;99.90;;;;;;4955431;29;20039;-73
2022/01/04 07:14:11;;;;;;;9.52;8.63;;;9.90;99.90;;;;;;4956045;29;20042;-73
2022/01/04 07:16:37;;;;;;;4.70;3.58;;;9.90;99.90;;;;;;4956415;29;20473;-72
2022/01/04 07:19:04;;;;;;;4.47;3.28;;;9.90;99.90;;;;;;4954788;29;20055;-73
2022/01/04 07:21:30;;;;;;;5.72;5.00;;;9.90;99.90;;;;;;4938571;29;20046;-72
2022/01/04 07:23:56;;;;;;;3.22;2.13;;;9.90;99.90;;;;;;4954969;29;20035;-72
2022/01/04 07:26:24;;;;;;;5.03;2.60;;;9.90;99.90;;;;;;4955945;29;20039;-73
2022/01/04 07:28:50;;;;;;;3.42;2.75;;;9.90;99.90;;;;;;4955686;29;20039;-73
2022/01/04 07:31:17;;;;;;;3.10;2.30;;;9.90;99.90;;;;;;4956433;29;20035;-72
2022/01/04 07:33:45;;;;;;;14.57;13.10;;;10.00;99.90;;;;;;4955580;29;20389;-73
2022/01/04 07:36:12;;;;;;;4.72;4.32;;;10.00;99.90;;;;;;4955942;29;20461;-73
2022/01/04 07:38:39;;;;;;;5.85;4.15;;;10.00;99.90;;;;;;4956107;29;20043;-73
2022/01/04 07:41:05;;;;;;;5.15;2.97;;;10.00;99.90;;;;;;4955032;29;20457;-73
2022/01/04 07:43:32;;;;;;;8.25;6.75;;;10.00;99.90;;;;;;4955649;29;20036;-72
2022/01/04 07:45:59;;;;;;;15.57;14.35;;;10.00;99.90;;;;;;4954739;29;20035;-73
2022/01/04 07:48:25;;;;;;;19.85;17.75;;;10.00;99.90;;;;;;4955393;29;20039;-72
2022/01/04 07:50:55;;;;;;;13.48;12.15;;;10.00;99.90;;;;;;4933956;29;20043;-73
2022/01/04 07:53:22;;;;;;;12.68;11.57;;;10.00;99.90;;;;;;4936570;29;20039;-73
2022/01/04 07:55:49;;;;;;;14.57;13.23;;;10.00;99.90;;;;;;4935570;29;20051;-73
2022/01/04 07:58:15;;;;;;;10.40;9.50;;;10.00;99.90;;;;;;4936222;29;20055;-73
2022/01/04 08:00:41;;;;;;;5.28;4.90;;;10.00;99.90;;;;;;4935954;29;20032;-72
2022/01/04 08:03:10;;;;;;;3.45;3.10;;;10.10;99.90;;;;;;4933876;29;20039;-73
2022/01/04 08:05:37;;;;;;;2.90;2.70;;;10.10;99.90;;;;;;4933659;29;20047;-73
2022/01/04 08:08:03;;;;;;;2.55;2.35;;;10.10;99.90;;;;;;4919873;29;20032;-73
2022/01/04 08:10:30;;;;;;;10.38;2.97;;;10.10;99.90;;;;;;4923478;29;20465;-71
2022/01/04 08:12:57;;;;;;;1.73;1.50;;;10.10;99.90;;;;;;4925148;29;20046;-71
2022/01/04 08:15:23;;;;;;;1.67;1.58;;;10.10;99.90;;;;;;4925870;29;20055;-72
2022/01/04 08:17:49;;;;;;;2.70;2.45;;;10.10;99.90;;;;;;4930649;29;20094;-73
2022/01/04 08:20:19;;;;;;;2.05;1.85;;;10.10;99.90;;;;;;4936029;29;20484;-72
2022/01/04 08:22:45;;;;;;;1.63;1.38;;;10.10;99.90;;;;;;4935525;29;20044;-73
2022/01/04 08:25:12;;;;;;;2.35;1.85;;;10.10;99.90;;;;;;4935612;29;20051;-72
2022/01/04 08:27:39;;;;;;;2.75;1.73;;;10.20;99.90;;;;;;4935515;29;20032;-72
2022/01/04 08:30:07;;;;;;;2.10;1.75;;;10.20;99.90;;;;;;4934601;29;20041;-72
2022/01/04 08:32:34;;;;;;;3.17;1.88;;;10.20;99.90;;;;;;4935152;29;20048;-72
2022/01/04 08:35:00;;;;;;;2.30;1.67;;;10.20;99.90;;;;;;4934533;29;20032;-72
2022/01/04 08:37:27;;;;;;;2.55;1.63;;;10.20;99.90;;;;;;4935685;29;20043;-72
2022/01/04 08:39:53;;;;;;;8.50;1.58;;;10.20;99.90;;;;;;4934812;29;20035;-72
2022/01/04 08:42:22;;;;;;;2.75;1.90;;;10.20;99.90;;;;;;4935140;29;20059;-72
2022/01/04 08:44:52;;;;;;;3.40;2.45;;;10.20;99.90;;;;;;4935078;29;20047;-73
2022/01/04 08:47:18;;;;;;;3.55;2.70;;;10.30;99.90;;;;;;4934921;29;20040;-73
2022/01/04 08:49:44;;;;;;;2.47;1.88;;;10.30;99.90;;;;;;4916534;29;20036;-74
2022/01/04 08:52:10;;;;;;;1.98;1.75;;;10.30;99.90;;;;;;4930227;29;20572;-78
2022/01/04 08:54:37;;;;;;;2.33;1.80;;;10.30;99.90;;;;;;4934988;29;20031;-79
2022/01/04 08:57:04;;;;;;;3.75;2.10;;;10.30;99.90;;;;;;4934281;29;20461;-79
2022/01/04 08:59:32;;;;;;;8.07;2.45;;;10.40;99.90;;;;;;4934781;29;20031;-78
2022/01/04 09:01:59;;;;;;;3.08;1.55;;;10.40;99.90;;;;;;4934810;29;20047;-84
2022/01/04 09:04:25;;;;;;;3.70;1.98;;;10.40;99.90;;;;;;4934694;29;20097;-80
2022/01/04 09:06:52;;;;;;;2.25;1.98;;;10.40;99.90;;;;;;4934062;29;20038;-76
2022/01/04 09:09:19;;;;;;;1.80;1.65;;;10.40;99.90;;;;;;4934138;29;20067;-80
2022/01/04 09:11:45;;;;;;;1.85;1.60;;;10.40;99.90;;;;;;4918126;29;20047;-80
2022/01/04 09:14:25;;;;;;;3.42;1.50;;;10.50;99.90;;;;;;4933936;29;20028;-80
2022/01/04 09:19:37;;;;;;;21.70;18.88;;;10.50;99.90;;;;;;4934782;29;20415;-78
2022/01/04 09:22:04;;;;;;;34.10;24.60;;;10.50;99.90;;;;;;4933317;29;20048;-77
2022/01/04 09:24:31;;;;;;;6.20;5.38;;;10.60;99.90;;;;;;4934389;29;20039;-76
2022/01/04 09:26:58;;;;;;;7.95;6.85;;;10.60;99.90;;;;;;4933637;29;20032;-81
2022/01/04 09:29:24;;;;;;;14.32;13.13;;;10.60;99.90;;;;;;4901621;29;20405;-80
2022/01/04 09:31:54;;;;;;;7.07;5.70;;;10.70;99.90;;;;;;4934115;29;20119;-78
2022/01/04 09:34:20;;;;;;;5.13;4.72;;;10.70;99.90;;;;;;4934713;29;20028;-79
2022/01/04 09:36:46;;;;;;;3.75;2.72;;;10.70;99.90;;;;;;4934502;29;20389;-80
2022/01/04 09:39:18;;;;;;;7.50;6.82;;;10.70;99.90;;;;;;4933991;29;20592;-80
2022/01/04 09:41:45;;;;;;;10.68;8.98;;;10.80;99.90;;;;;;4934388;29;20036;-80
2022/01/04 09:44:12;;;;;;;6.40;3.83;;;10.80;99.90;;;;;;4916814;29;20508;-80
2022/01/04 09:46:39;;;;;;;3.88;3.08;;;10.80;99.90;;;;;;4934525;29;20055;-80
2022/01/04 09:49:07;;;;;;;3.72;2.45;;;10.80;99.90;;;;;;4933864;29;20036;-79
2022/01/04 09:51:37;;;;;;;3.72;3.00;;;10.90;99.90;;;;;;4934845;29;20070;-85
2022/01/04 09:54:03;;;;;;;4.88;2.67;;;10.90;99.90;;;;;;4933656;29;20038;-80
2022/01/04 09:56:30;;;;;;;9.75;6.13;;;10.90;99.90;;;;;;4934184;29;20484;-79
2022/01/04 09:58:56;;;;;;;12.20;9.75;;;10.90;99.90;;;;;;4933305;29;20040;-78
2022/01/04 10:01:26;;;;;;;4.32;2.75;;;11.00;99.90;;;;;;4934472;29;20040;-80
2022/01/04 10:03:52;;;;;;;2.92;2.17;;;10.90;99.90;;;;;;4926232;29;20055;-78
2022/01/04 10:06:19;;;;;;;5.90;5.22;;;10.90;99.90;;;;;;4942005;29;20050;-77
2022/01/04 10:08:55;;;;;;;3.38;3.08;;;10.90;99.90;;;;;;4936876;29;20040;-77
2022/01/04 10:11:39;;;;;;;5.72;1.92;;;10.90;99.90;;;;;;4934544;29;20477;-77
2022/01/04 10:14:31;;;;;;;9.63;6.95;;;10.90;99.90;;;;;;4936942;29;20046;-74
2022/01/04 10:17:03;;;;;;;4.15;1.75;;;10.90;99.90;;;;;;4925598;29;20055;-79
2022/01/04 10:19:34;;;;;;;2.83;2.45;;;10.90;99.90;;;;;;4938698;29;20394;-80
2022/01/04 10:22:23;;;;;;;1.35;1.17;;;10.60;99.90;;;;;;4937173;29;20035;-78
2022/01/04 10:25:08;;;;;;;1.40;1.30;;;9.60;99.90;;;;;;4937991;29;20462;-80
2022/01/04 10:27:38;;;;;;;2.03;1.83;;;8.90;99.90;;;;;;4946083;29;20036;-80
2022/01/04 10:30:14;;;;;;;2.13;1.98;;;8.70;99.90;;;;;;4935308;29;20039;-79
2022/01/04 10:32:47;;;;;;;4.75;4.35;;;8.50;99.90;;;;;;4946219;29;20389;-78
2022/01/04 10:35:58;;;;;;;4.28;2.80;;;8.50;99.90;;;;;;4937248;29;20039;-75
2022/01/04 10:38:32;;;;;;;4.30;3.97;;;8.40;99.90;;;;;;4945825;29;20027;-77
2022/01/04 10:41:20;;;;;;;4.15;3.85;;;8.30;99.90;;;;;;4936572;29;20038;-78
2022/01/04 10:43:55;;;;;;;6.75;5.90;;;8.20;99.90;;;;;;4956502;29;20039;-74
2022/01/04 10:46:32;;;;;;;7.13;6.53;;;8.10;99.90;;;;;;4956241;29;20042;-79
2022/01/04 10:48:59;;;;;;;7.00;6.50;;;8.10;99.90;;;;;;4955597;29;20050;-78
2022/01/04 10:51:27;;;;;;;7.32;6.72;;;8.10;99.90;;;;;;4956325;29;20394;-76
2022/01/04 10:54:00;;;;;;;6.20;5.70;;;8.00;99.90;;;;;;4956430;29;20046;-77
2022/01/04 10:56:33;;;;;;;5.75;5.25;;;8.00;99.90;;;;;;4956764;29;20378;-77
2022/01/04 10:59:03;;;;;;;4.85;4.35;;;8.00;99.90;;;;;;4938389;29;20031;-77
2022/01/04 11:01:37;;;;;;;5.15;4.60;;;7.90;99.90;;;;;;4956457;29;20034;-76
2022/01/04 11:04:04;;;;;;;4.40;3.20;;;7.90;99.90;;;;;;4955248;29;20054;-75
2022/01/04 11:06:39;;;;;;;4.55;3.60;;;7.80;99.90;;;;;;4938895;29;20042;-75
2022/01/04 11:09:08;;;;;;;2.33;2.10;;;7.80;99.90;;;;;;4955345;29;20038;-77
2022/01/04 11:11:35;;;;;;;2.80;2.10;;;7.70;99.90;;;;;;4956284;29;20042;-76
2022/01/04 11:14:02;;;;;;;2.15;1.95;;;7.60;99.90;;;;;;4937602;29;20043;-76
2022/01/04 11:16:30;;;;;;;1.58;1.48;;;7.60;99.90;;;;;;4956331;29;20039;-78
2022/01/04 11:18:58;;;;;;;2.35;1.83;;;7.60;99.90;;;;;;4956197;29;20385;-76
2022/01/04 11:21:34;;;;;;;2.22;1.08;;;7.60;99.90;;;;;;4955724;29;20461;-79
2022/01/04 11:24:03;;;;;;;1.17;0.80;;;7.50;99.90;;;;;;4951527;29;20043;-77
2022/01/04 11:26:30;;;;;;;1.00;0.90;;;7.50;99.90;;;;;;4956346;28;20377;-78
2022/01/04 11:28:57;;;;;;;0.65;0.52;;;7.40;99.90;;;;;;4956640;29;20035;-76
2022/01/04 11:31:41;;;;;;;0.88;0.55;;;7.30;99.90;;;;;;4938296;29;20043;-77
2022/01/04 11:34:10;;;;;;;0.50;0.40;;;7.30;99.90;;;;;;4954903;29;20047;-75
2022/01/04 11:36:41;;;;;;;0.50;0.50;;;7.30;99.90;;;;;;4955848;29;20027;-77
2022/01/04 11:39:35;;;;;;;0.80;0.50;;;7.30;99.90;;;;;;4954747;29;20042;-75
2022/01/04 11:42:38;;;;;;;0.98;0.68;;;7.20;99.90;;;;;;4948662;29;20047;-75
2022/01/04 11:45:08;;;;;;;0.50;0.50;;;7.20;99.90;;;;;;4953003;29;20058;-76
2022/01/04 11:47:37;;;;;;;1.10;0.63;;;7.20;99.90;;;;;;4949197;29;20469;-74
2022/01/04 11:50:16;;;;;;;1.20;1.05;;;7.20;99.90;;;;;;4945235;29;20050;-73
2022/01/04 11:52:45;;;;;;;1.10;0.68;;;7.30;99.90;;;;;;4929071;29;20063;-77
2022/01/04 11:55:29;;;;;;;2.20;0.50;;;7.30;99.90;;;;;;4931691;29;20458;-76
2022/01/04 11:57:58;;;;;;;2.03;0.80;;;7.20;99.90;;;;;;4932219;29;20032;-75
2022/01/04 12:00:30;;;;;;;1.48;0.68;;;7.10;99.90;;;;;;4918427;29;20057;-74
2022/01/04 12:03:12;;;;;;;1.08;0.70;;;7.10;99.90;;;;;;4923204;29;20036;-79
2022/01/04 12:05:59;;;;;;;1.40;0.65;;;7.10;99.90;;;;;;4927965;29;20042;-74
2022/01/04 12:08:33;;;;;;;3.70;0.60;;;7.10;99.90;;;;;;4933185;29;20040;-79
2022/01/04 12:10:59;;;;;;;0.52;0.40;;;7.00;99.90;;;;;;4936223;29;20039;-74
2022/01/04 12:13:47;;;;;;;2.90;0.80;;;7.00;99.90;;;;;;4935737;29;20047;-74
2022/01/04 12:16:15;;;;;;;0.77;0.60;;;6.90;99.90;;;;;;4934990;29;20036;-76
2022/01/04 12:18:41;;;;;;;1.05;0.77;;;6.90;99.90;;;;;;4935580;29;20055;-76
2022/01/04 12:21:12;;;;;;;1.60;0.60;;;7.00;99.90;;;;;;4934930;29;20035;-76
2022/01/04 12:23:46;;;;;;;2.15;0.68;;;7.00;99.90;;;;;;4935787;29;20054;-76
2022/01/04 12:26:12;;;;;;;1.13;0.70;;;6.90;99.90;;;;;;4934756;29;20040;-75
2022/01/04 12:29:05;;;;;;;1.02;0.60;;;6.90;99.90;;;;;;4934489;29;20489;-75
2022/01/04 12:31:52;;;;;;;0.90;0.68;;;7.00;99.90;;;;;;4935682;29;20031;-75
2022/01/04 12:34:25;;;;;;;0.77;0.52;;;6.90;99.90;;;;;;4934567;29;20042;-75
2022/01/04 12:36:52;;;;;;;0.95;0.80;;;7.00;99.90;;;;;;4935373;29;20031;-74
2022/01/04 12:39:21;;;;;;;0.65;0.50;;;7.00;99.90;;;;;;4934869;29;20036;-75
2022/01/04 12:41:51;;;;;;;1.55;0.75;;;6.90;99.90;;;;;;4935584;29;20032;-75
2022/01/04 12:44:25;;;;;;;0.65;0.50;;;6.80;99.90;;;;;;4934515;29;20039;-74
2022/01/04 12:46:52;;;;;;;0.70;0.45;;;6.80;99.90;;;;;;4934238;29;20043;-74
2022/01/04 12:49:20;;;;;;;0.52;0.43;;;6.60;99.90;;;;;;4934375;29;20044;-75
2022/01/04 12:51:50;;;;;;;0.68;0.30;;;6.60;99.90;;;;;;4946555;29;20080;-75
2022/01/04 12:54:19;;;;;;;0.70;0.40;;;6.60;99.90;;;;;;4953509;29;20068;-75
2022/01/04 12:56:50;;;;;;;0.73;0.50;;;6.60;99.90;;;;;;4954278;29;20035;-73
2022/01/04 12:59:22;;;;;;;1.00;0.60;;;6.70;99.90;;;;;;4953750;29;20035;-74
2022/01/04 13:01:50;;;;;;;1.10;0.63;;;6.70;99.90;;;;;;4953926;29;20034;-74
2022/01/04 13:04:24;;;;;;;0.70;0.50;;;6.70;99.90;;;;;;4953347;29;20039;-74